KDIK/DIK METAR and TAF weather

Enter ICAO airport designator
Station Type Date Time Source
KDIK METAR 2019/12/14 10:56 UTC NOAA

KDIK 141056Z AUTO 08005KT 10SM BKN095 OVC120 M18/M21 A2994 RMK AO2 SLP195 I1000 T11781206


Station Type Date Time Source
KDIK Decoded METAR 2019/12/14 10:56 UTC NOAA

THEODORE ROOSEVELT REGIONAL, ND, United States (KDIK) 46-48N 102-48W 788M
Dec 14, 2019 - 05:56 AM EST / 2019.12.14 1056 UTC
Wind: from the E (080 degrees) at 6 MPH (5 KT):0
Visibility: 10 mile(s):0
Sky conditions: overcast
Temperature: -0.0 F (-17.8 C)
Windchill: -11 F (-24 C):2
Dew Point: -5.1 F (-20.6 C)
Relative Humidity: 78%
Pressure (altimeter): 29.94 in. Hg (1013 hPa)
ob: KDIK 141056Z AUTO 08005KT 10SM BKN095 OVC120 M18/M21 A2994 RMK AO2 SLP195 I1000 T11781206
cycle: 11

Station Type Date Time Source
KDIK TAF 2019/12/14 11:12 UTC NOAA

TAF
AMD KDIK 141111Z 1411/1506 08005KT P6SM FEW010 BKN100
TEMPO 1412/1416 BKN015
FM141600 13006KT P6SM VCSH BKN023
FM142000 15007KT P6SM BKN040

Example: see airport list